Time;durP1;ratioP1;P1;durP2;ratioP2;P2;SDS_P1;SDS_P2;PMS_P1;PMS_P2;Temp;Humidity;BMP_temperature;BMP_pressure;BME280_temperature;BME280_humidity;BME280_pressure;Samples;Min_cycle;Max_cycle;Signal;HPM_P1;HPM_P2
2022/03/11 00:01:39;;;;;;;4.32;4.13;;;;;;;6.87;41.14;101430.75;6056785;23;20034;-69
2022/03/11 00:04:25;;;;;;;5.07;4.88;;;;;;;6.73;40.14;101386.75;6061703;23;20034;-69
2022/03/11 00:06:52;;;;;;;3.20;3.10;;;;;;;6.92;39.96;101399.34;6079600;23;20037;-71
2022/03/11 00:09:18;;;;;;;3.85;3.65;;;;;;;6.86;39.04;101394.28;6059103;23;20034;-70
2022/03/11 00:11:45;;;;;;;4.38;4.18;;;;;;;7.16;39.71;101426.56;6055963;23;20041;-70
2022/03/11 00:14:11;;;;;;;3.33;3.22;;;;;;;6.92;39.96;101386.31;6036392;23;20470;-72
2022/03/11 00:16:37;;;;;;;4.50;4.30;;;;;;;7.13;39.78;101424.03;6056782;23;20350;-69
2022/03/11 00:19:04;;;;;;;3.90;3.70;;;;;;;7.11;38.99;101425.81;6061923;23;20028;-70
2022/03/11 00:21:32;;;;;;;5.10;4.90;;;;;;;7.04;39.54;101406.00;6027986;23;20009;-70
2022/03/11 00:23:59;;;;;;;3.40;3.30;;;;;;;7.12;40.00;101425.78;6057303;23;20037;-69
2022/03/11 00:26:25;;;;;;;5.30;5.10;;;;;;;6.92;39.86;101400.19;6054629;23;20087;-70
2022/03/11 00:28:52;;;;;;;3.30;3.20;;;;;;;6.96;39.11;101429.69;6082230;23;20497;-70
2022/03/11 00:31:19;;;;;;;3.47;3.38;;;;;;;6.92;40.04;101422.84;6055318;23;20054;-70
2022/03/11 00:33:46;;;;;;;3.50;3.40;;;;;;;6.45;39.90;101360.50;6057666;23;20023;-70
2022/03/11 00:36:12;;;;;;;3.30;3.20;;;;;;;6.75;40.42;101426.69;6054752;23;20057;-69
2022/03/11 00:38:39;;;;;;;4.00;3.80;;;;;;;5.05;40.57;101150.19;6055560;23;20097;-71
2022/03/11 00:41:05;;;;;;;3.40;3.30;;;;;;;6.42;40.48;101404.91;6068187;23;20033;-69
2022/03/11 00:43:32;;;;;;;5.22;5.03;;;;;;;6.54;40.66;101435.06;6083580;23;20097;-69
2022/03/11 00:45:59;;;;;;;3.95;3.75;;;;;;;6.56;40.43;101435.88;6061091;23;20092;-73
2022/03/11 00:48:26;;;;;;;4.88;4.68;;;;;;;6.39;40.49;101402.38;6057742;23;20170;-70
2022/03/11 00:50:53;;;;;;;3.40;3.30;;;;;;;6.44;41.18;101430.97;6032498;23;20281;-72
2022/03/11 00:53:20;;;;;;;3.50;3.40;;;;;;;6.02;41.22;101363.28;6062262;23;20262;-70
2022/03/11 00:55:46;;;;;;;3.40;3.30;;;;;;;6.12;40.82;101377.81;6065631;23;20042;-69
2022/03/11 00:58:12;;;;;;;3.53;3.33;;;;;;;6.43;40.66;101406.59;6063344;23;20089;-69
2022/03/11 01:00:39;;;;;;;4.40;4.20;;;;;;;6.28;40.70;101363.53;6052753;23;20085;-69
2022/03/11 01:03:05;;;;;;;3.80;3.60;;;;;;;6.56;41.03;101415.03;6039027;23;20428;-69
2022/03/11 01:05:32;;;;;;;4.72;4.53;;;;;;;6.53;40.00;101413.31;6049031;23;20014;-69
2022/03/11 01:07:59;;;;;;;3.17;3.08;;;;;;;6.34;40.58;101380.78;6061111;23;20667;-70
2022/03/11 01:10:25;;;;;;;4.63;4.43;;;;;;;6.49;40.69;101393.44;6051815;23;20569;-69
2022/03/11 01:12:51;;;;;;;3.42;3.33;;;;;;;6.44;41.22;101379.66;6030230;23;21254;-70
2022/03/11 01:15:18;;;;;;;3.95;3.75;;;;;;;6.51;40.61;101393.41;6063177;23;20045;-69
2022/03/11 01:17:44;;;;;;;3.83;3.63;;;;;;;6.38;40.04;101361.56;6028248;23;20350;-69
2022/03/11 01:20:11;;;;;;;3.33;3.22;;;;;;;6.64;40.16;101396.59;6056409;23;20036;-69
2022/03/11 01:22:38;;;;;;;4.43;4.22;;;;;;;6.41;40.10;101353.66;6053337;23;20373;-70
2022/03/11 01:25:06;;;;;;;3.20;3.10;;;;;;;6.67;40.05;101397.34;6076986;23;20024;-70
2022/03/11 01:27:33;;;;;;;4.97;4.78;;;;;;;6.69;40.42;101399.91;6057238;23;20313;-69
2022/03/11 01:30:00;;;;;;;3.40;3.30;;;;;;;6.61;40.57;101394.03;6077322;23;20026;-69
2022/03/11 01:32:26;;;;;;;5.30;5.10;;;;;;;6.47;41.08;101390.00;6053118;23;20025;-69
2022/03/11 01:34:52;;;;;;;4.05;3.78;;;;;;;6.49;41.17;101389.97;6066267;23;20089;-69
2022/03/11 01:37:19;;;;;;;3.40;3.30;;;;;;;5.96;41.03;101305.19;6059610;23;20521;-69
2022/03/11 01:39:45;;;;;;;3.30;3.20;;;;;;;6.45;41.39;101388.31;6092499;23;20073;-70
2022/03/11 01:42:12;;;;;;;3.47;3.38;;;;;;;6.39;40.90;101404.97;6081920;23;20093;-70
2022/03/11 01:44:38;;;;;;;3.70;3.60;;;;;;;6.35;41.20;101387.69;6081367;23;20183;-72
2022/03/11 01:47:06;;;;;;;8.43;3.40;;;;;;;6.24;41.71;101374.91;6089162;23;20225;-70
2022/03/11 01:49:34;;;;;;;5.30;5.10;;;;;;;6.44;41.41;101374.44;6080529;23;20501;-69
2022/03/11 01:52:00;;;;;;;3.30;3.20;;;;;;;6.48;41.35;101373.47;6087847;23;20341;-70
2022/03/11 01:54:26;;;;;;;3.55;3.40;;;;;;;6.38;41.94;101366.78;6083245;23;20084;-68
2022/03/11 01:56:53;;;;;;;3.10;3.00;;;;;;;6.45;40.92;101376.13;6057676;23;20233;-69
2022/03/11 01:59:20;;;;;;;3.42;3.33;;;;;;;5.89;41.74;101295.75;6098949;23;20340;-70
2022/03/11 02:01:46;;;;;;;3.28;3.17;;;;;;;6.29;42.39;101341.75;6082722;23;20018;-72
2022/03/11 02:04:13;;;;;;;3.00;2.90;;;;;;;6.08;42.26;101321.44;6113402;23;20030;-69
2022/03/11 02:06:39;;;;;;;4.07;3.85;;;;;;;6.24;42.66;101359.28;6086546;23;20696;-70
2022/03/11 02:09:06;;;;;;;3.83;3.63;;;;;;;6.18;42.51;101352.44;6083141;23;20380;-69
2022/03/11 02:11:33;;;;;;;5.28;5.07;;;;;;;6.21;42.17;101350.66;6085251;23;20020;-69
2022/03/11 02:14:00;;;;;;;3.50;3.40;;;;;;;6.17;42.33;101353.38;6082831;23;20303;-69
2022/03/11 02:16:30;;;;;;;5.03;4.82;;;;;;;5.65;42.88;101268.53;6082448;23;20014;-69
2022/03/11 02:18:58;;;;;;;3.30;3.20;;;;;;;6.17;42.54;101348.16;6093258;23;20065;-69
2022/03/11 02:21:27;;;;;;;5.85;5.50;;;;;;;6.09;42.89;101338.78;6079633;23;20627;-69
2022/03/11 02:23:58;;;;;;;3.60;3.50;;;;;;;6.04;42.87;101353.69;6091387;23;20460;-71
2022/03/11 02:26:27;;;;;;;5.47;5.25;;;;;;;6.07;43.25;101364.00;6077782;23;20038;-69
2022/03/11 02:28:55;;;;;;;3.95;3.78;;;;;;;6.03;43.46;101344.97;6086386;23;20077;-70
2022/03/11 02:31:24;;;;;;;3.85;3.65;;;;;;;5.98;44.15;101352.91;6050893;23;20609;-70
2022/03/11 02:33:51;;;;;;;3.30;3.20;;;;;;;5.90;43.49;101317.47;6068785;23;20147;-72
2022/03/11 02:36:18;;;;;;;3.97;3.78;;;;;;;5.93;43.15;101323.50;6086307;23;20152;-70
2022/03/11 02:38:45;;;;;;;3.72;3.40;;;;;;;6.06;43.46;101349.28;6102482;23;20048;-69
2022/03/11 02:41:12;;;;;;;3.40;3.30;;;;;;;5.99;44.25;101349.44;6081868;23;20044;-68
2022/03/11 02:43:41;;;;;;;4.82;4.43;;;;;;;5.86;44.21;101334.94;6083575;23;20045;-69
2022/03/11 02:46:09;;;;;;;4.53;3.40;;;;;;;5.83;45.42;101353.22;6045617;23;20323;-69
2022/03/11 02:48:36;;;;;;;5.13;4.93;;;;;;;5.52;45.00;101293.16;6077175;23;20029;-69
2022/03/11 02:51:02;;;;;;;3.42;3.20;;;;;;;5.78;44.75;101342.91;6062463;23;20604;-70
2022/03/11 02:53:29;;;;;;;4.85;4.65;;;;;;;4.46;45.31;101121.06;6089197;23;20029;-68
2022/03/11 02:55:56;;;;;;;3.92;3.72;;;;;;;5.63;45.39;101298.09;6089008;23;20086;-69
2022/03/11 02:58:22;;;;;;;3.72;3.58;;;;;;;5.37;45.40;101283.91;6080018;23;20022;-70
2022/03/11 03:00:49;;;;;;;3.72;3.40;;;;;;;5.73;44.99;101331.75;6080393;23;20135;-70
2022/03/11 03:03:15;;;;;;;4.03;3.83;;;;;;;5.71;45.28;101343.94;6088070;23;20085;-69
2022/03/11 03:05:42;;;;;;;3.10;3.00;;;;;;;5.75;45.21;101332.56;6086067;23;20545;-70
2022/03/11 03:08:08;;;;;;;3.20;3.10;;;;;;;5.67;45.74;101337.06;6090934;23;20022;-70
2022/03/11 03:10:35;;;;;;;7.60;7.22;;;;;;;5.62;45.70;101330.25;6061212;23;20306;-70
2022/03/11 03:13:02;;;;;;;3.03;2.92;;;;;;;5.64;46.82;101338.91;6077912;23;20022;-70
2022/03/11 03:15:29;;;;;;;4.85;4.65;;;;;;;5.29;47.06;101298.81;6086975;23;20049;-70
2022/03/11 03:17:55;;;;;;;3.00;2.90;;;;;;;5.47;47.02;101324.50;6056339;23;20157;-70
2022/03/11 03:20:22;;;;;;;3.63;3.47;;;;;;;5.33;47.10;101310.88;6092132;23;20072;-69
2022/03/11 03:22:48;;;;;;;3.58;3.45;;;;;;;5.37;46.42;101313.41;6082936;23;20448;-70
2022/03/11 03:25:14;;;;;;;3.03;2.92;;;;;;;5.24;47.54;101300.69;6092596;23;20029;-70
2022/03/11 03:27:41;;;;;;;4.20;4.00;;;;;;;5.00;47.11;101282.06;6086672;23;20140;-70
2022/03/11 03:30:08;;;;;;;3.05;2.95;;;;;;;5.43;47.90;101337.59;6077945;23;20059;-70
2022/03/11 03:32:34;;;;;;;4.85;4.65;;;;;;;5.01;47.68;101262.94;6081545;23;20025;-70
2022/03/11 03:35:01;;;;;;;3.38;3.28;;;;;;;5.34;47.86;101334.28;6088263;23;20084;-69
2022/03/11 03:37:27;;;;;;;4.38;4.18;;;;;;;5.19;47.82;101303.34;6089628;23;20033;-70
2022/03/11 03:39:54;;;;;;;3.60;3.40;;;;;;;5.40;47.16;101322.91;6086688;23;20010;-70
2022/03/11 03:42:20;;;;;;;3.40;3.30;;;;;;;4.94;47.49;101272.63;6101573;23;20095;-70
2022/03/11 03:44:46;;;;;;;3.20;3.10;;;;;;;5.30;48.57;101331.78;6069856;23;20043;-70
2022/03/11 03:47:13;;;;;;;3.78;3.58;;;;;;;5.20;48.61;101337.16;6111913;23;20029;-70
2022/03/11 03:49:39;;;;;;;4.25;4.05;;;;;;;5.31;48.22;101330.88;6055959;23;20211;-70
2022/03/11 03:52:11;;;;;;;3.20;3.10;;;;;;;4.97;48.11;101284.72;6115068;23;20177;-71
2022/03/11 03:54:41;;;;;;;3.20;3.10;;;;;;;5.00;48.54;101282.06;6061552;23;20023;-71
2022/03/11 03:57:08;;;;;;;3.10;3.00;;;;;;;5.30;48.60;101322.22;6114252;23;20489;-71
2022/03/11 03:59:34;;;;;;;4.75;4.55;;;;;;;5.26;48.57;101327.53;6084255;23;20065;-71
2022/03/11 04:02:02;;;;;;;3.10;3.00;;;;;;;5.09;49.02;101302.69;6113407;23;20250;-71
2022/03/11 04:04:29;;;;;;;4.85;4.65;;;;;;;5.11;49.36;101333.88;6036587;23;20038;-72
2022/03/11 04:06:55;;;;;;;3.50;3.30;;;;;;;5.17;48.97;101326.81;6106584;23;20530;-71
2022/03/11 04:09:22;;;;;;;4.70;4.47;;;;;;;5.19;48.13;101322.44;6090742;23;20337;-71
2022/03/11 04:11:48;;;;;;;3.28;3.17;;;;;;;5.02;49.11;101302.84;6114912;23;20053;-71
2022/03/11 04:14:15;;;;;;;4.88;4.68;;;;;;;5.11;49.64;101331.28;6077144;23;20053;-71
2022/03/11 04:16:41;;;;;;;4.43;4.15;;;;;;;4.88;49.30;101287.50;6086018;23;20044;-71
2022/03/11 04:19:08;;;;;;;3.45;3.35;;;;;;;4.64;48.82;101252.44;6083452;23;21142;-71
2022/03/11 04:21:34;;;;;;;5.15;4.95;;;;;;;4.90;50.06;101317.78;6108308;23;20030;-71
2022/03/11 04:24:01;;;;;;;3.00;2.90;;;;;;;4.85;50.09;101300.56;6069825;23;20009;-71
2022/03/11 04:26:27;;;;;;;4.95;4.75;;;;;;;4.89;49.28;101294.41;6113189;23;20383;-71
2022/03/11 04:28:54;;;;;;;3.00;2.90;;;;;;;5.01;48.88;101304.56;6089161;23;20141;-71
2022/03/11 04:31:20;;;;;;;3.70;3.60;;;;;;;5.03;49.60;101323.59;6093718;23;20081;-72
2022/03/11 04:33:47;;;;;;;3.35;3.20;;;;;;;4.57;49.71;101255.13;6045122;23;20043;-70
2022/03/11 04:36:13;;;;;;;2.80;2.70;;;;;;;3.73;49.64;101103.41;6118148;23;20052;-70
2022/03/11 04:38:40;;;;;;;3.40;3.25;;;;;;;4.84;50.22;101301.44;6082465;23;20088;-70
2022/03/11 04:41:06;;;;;;;3.65;3.53;;;;;;;4.61;50.24;101294.94;6112747;23;20089;-70
2022/03/11 04:43:33;;;;;;;4.78;4.57;;;;;;;4.79;50.44;101318.00;6084958;23;20045;-70
2022/03/11 04:46:00;;;;;;;2.90;2.80;;;;;;;4.60;50.89;101293.22;6108512;23;20045;-70
2022/03/11 04:48:27;;;;;;;5.30;5.10;;;;;;;4.72;50.81;101308.59;6092263;23;20455;-70
2022/03/11 04:50:53;;;;;;;3.40;3.20;;;;;;;4.77;50.76;101319.78;6105308;23;20033;-70
2022/03/11 04:53:20;;;;;;;3.45;3.25;;;;;;;4.29;50.44;101257.38;6088009;23;20076;-71
2022/03/11 04:55:46;;;;;;;3.10;3.00;;;;;;;4.44;51.09;101274.44;6083762;23;20073;-71
2022/03/11 04:58:13;;;;;;;2.90;2.80;;;;;;;4.70;51.00;101325.94;6089487;23;20145;-71
2022/03/11 05:00:39;;;;;;;3.70;3.40;;;;;;;4.53;50.94;101317.59;6088567;23;20443;-69
2022/03/11 05:03:06;;;;;;;3.25;3.10;;;;;;;4.02;51.23;101253.47;6091873;23;20515;-71
2022/03/11 05:05:32;;;;;;;5.35;5.05;;;;;;;4.44;51.49;101336.81;6080943;23;20407;-69
2022/03/11 05:08:00;;;;;;;3.78;3.35;;;;;;;4.19;52.30;101298.22;6064616;23;20041;-70
2022/03/11 05:10:27;;;;;;;5.05;4.85;;;;;;;4.10;52.17;101290.56;6080610;23;20041;-69
2022/03/11 05:12:53;;;;;;;3.20;3.10;;;;;;;4.47;52.00;101331.56;6069859;23;20431;-69
2022/03/11 05:15:21;;;;;;;4.60;4.40;;;;;;;4.14;51.93;101301.78;6081695;23;20013;-69
2022/03/11 05:17:47;;;;;;;3.22;3.13;;;;;;;4.12;51.90;101291.41;6057680;23;20011;-69
2022/03/11 05:20:14;;;;;;;2.80;2.70;;;;;;;4.12;52.29;101286.22;6101511;23;20220;-69
2022/03/11 05:22:42;;;;;;;3.97;3.65;;;;;;;4.35;52.29;101327.44;6059274;23;20038;-69
2022/03/11 05:25:11;;;;;;;3.35;3.17;;;;;;;4.48;52.24;101320.28;6079789;23;20412;-71
2022/03/11 05:27:38;;;;;;;4.55;4.35;;;;;;;4.49;52.08;101315.91;6068210;23;20018;-72
2022/03/11 05:30:06;;;;;;;3.60;3.50;;;;;;;4.32;51.90;101303.22;6100845;23;20030;-71
2022/03/11 05:32:32;;;;;;;4.90;4.70;;;;;;;4.27;52.55;101299.81;6084697;23;20018;-70
2022/03/11 05:34:59;;;;;;;3.47;3.33;;;;;;;4.42;52.23;101307.38;6083789;23;20419;-71
2022/03/11 05:37:25;;;;;;;4.50;4.30;;;;;;;4.44;51.73;101307.38;6085148;23;20044;-69
2022/03/11 05:39:52;;;;;;;4.10;2.97;;;;;;;4.02;52.36;101263.03;6082979;23;20033;-69
2022/03/11 05:42:18;;;;;;;3.47;3.25;;;;;;;4.29;52.70;101308.47;6036900;23;20080;-69
2022/03/11 05:44:45;;;;;;;2.85;2.75;;;;;;;4.28;52.76;101314.56;6085759;23;20006;-69
2022/03/11 05:47:11;;;;;;;3.60;3.40;;;;;;;4.35;52.43;101313.56;6089714;23;20097;-69
2022/03/11 05:49:37;;;;;;;4.95;4.75;;;;;;;4.29;52.36;101313.66;6085009;23;20096;-69
2022/03/11 05:52:04;;;;;;;3.00;2.90;;;;;;;3.85;52.96;101242.50;6091275;23;20014;-72
2022/03/11 05:54:30;;;;;;;3.58;3.38;;;;;;;4.11;52.73;101301.81;6111313;23;20049;-71
2022/03/11 05:56:57;;;;;;;3.40;3.25;;;;;;;3.25;53.01;101147.38;6069907;23;20021;-70
2022/03/11 05:59:23;;;;;;;3.20;3.10;;;;;;;4.25;52.72;101312.00;6120648;23;20032;-72
2022/03/11 06:01:50;;;;;;;3.22;3.03;;;;;;;4.10;52.92;101275.00;6070193;23;20187;-69
2022/03/11 06:04:16;;;;;;;2.95;2.85;;;;;;;4.05;52.82;101276.81;6096492;23;20021;-69
2022/03/11 06:06:43;;;;;;;2.95;2.85;;;;;;;3.98;53.59;101259.59;6054384;23;20041;-71
2022/03/11 06:09:11;;;;;;;2.80;2.70;;;;;;;3.85;53.39;101224.31;6092475;23;20364;-69
2022/03/11 06:11:38;;;;;;;3.58;3.38;;;;;;;4.09;53.41;101259.41;6094159;23;20016;-69
2022/03/11 06:14:04;;;;;;;3.20;3.00;;;;;;;3.85;53.37;101247.69;6087703;23;20018;-71
2022/03/11 06:16:31;;;;;;;4.60;4.40;;;;;;;3.96;53.28;101263.97;6061224;23;20021;-69
2022/03/11 06:18:57;;;;;;;3.00;2.90;;;;;;;3.98;53.37;101257.84;6104146;23;20006;-69
2022/03/11 06:21:24;;;;;;;4.38;4.18;;;;;;;4.14;53.56;101275.81;6116629;23;20062;-66
2022/03/11 06:23:52;;;;;;;3.30;3.20;;;;;;;4.27;53.69;101295.50;6094596;23;20028;-69
2022/03/11 06:26:18;;;;;;;3.38;3.20;;;;;;;4.24;53.54;101286.91;6083687;23;20026;-69
2022/03/11 06:28:44;;;;;;;3.80;3.65;;;;;;;4.23;53.72;101287.78;6076407;23;20078;-69
2022/03/11 06:31:11;;;;;;;3.05;2.95;;;;;;;4.14;53.67;101274.06;6080110;23;20034;-69
2022/03/11 06:33:38;;;;;;;4.70;4.50;;;;;;;4.33;53.78;101299.72;6077505;23;20466;-72
2022/03/11 06:36:06;;;;;;;2.90;2.80;;;;;;;4.36;53.28;101302.28;6066932;23;20101;-68
2022/03/11 06:38:33;;;;;;;4.85;4.65;;;;;;;4.38;53.51;101296.16;6057736;23;20010;-69
2022/03/11 06:40:59;;;;;;;3.10;3.00;;;;;;;4.16;53.51;101263.66;6042850;23;20038;-69
2022/03/11 06:43:25;;;;;;;4.60;4.40;;;;;;;4.27;53.48;101268.66;6058864;23;20030;-69
2022/03/11 06:45:52;;;;;;;3.00;2.90;;;;;;;4.33;53.03;101289.34;6031765;23;20015;-69
2022/03/11 06:48:19;;;;;;;3.33;3.20;;;;;;;4.20;53.09;101257.50;6055644;23;20088;-68
2022/03/11 06:50:45;;;;;;;3.28;3.17;;;;;;;4.09;53.29;101233.44;6024476;23;20375;-69
2022/03/11 06:53:12;;;;;;;3.20;3.10;;;;;;;4.29;53.89;101275.56;6079176;23;20029;-69
2022/03/11 06:55:39;;;;;;;4.97;4.78;;;;;;;4.52;53.02;101310.69;6033592;23;20019;-69
2022/03/11 06:58:06;;;;;;;3.40;3.30;;;;;;;4.47;53.74;101313.38;6052068;23;20097;-69
2022/03/11 07:00:32;;;;;;;5.03;4.82;;;;;;;4.20;53.42;101262.72;6016087;23;20090;-70
2022/03/11 07:02:59;;;;;;;3.78;3.60;;;;;;;4.57;53.14;101309.72;6051968;23;20065;-69
2022/03/11 07:05:26;;;;;;;6.13;5.63;;;;;;;4.60;53.21;101316.59;6043851;23;20030;-69
2022/03/11 07:07:52;;;;;;;4.20;3.95;;;;;;;4.70;52.51;101307.75;6057354;23;20081;-69
2022/03/11 07:10:20;;;;;;;3.30;3.20;;;;;;;4.19;51.48;101222.06;6052429;23;20068;-69
2022/03/11 07:12:47;;;;;;;3.75;3.55;;;;;;;4.87;51.52;101319.59;6058771;23;20030;-70
2022/03/11 07:15:13;;;;;;;3.10;3.00;;;;;;;4.75;51.94;101299.88;6056304;23;20083;-69
2022/03/11 07:17:39;;;;;;;3.63;3.53;;;;;;;4.79;51.35;101296.31;6079149;23;20532;-70
2022/03/11 07:20:07;;;;;;;3.20;3.10;;;;;;;5.04;51.20;101319.28;6054838;23;20070;-70
2022/03/11 07:22:34;;;;;;;5.53;5.25;;;;;;;5.11;51.68;101331.28;6051174;23;20107;-72
2022/03/11 07:25:02;;;;;;;3.28;3.17;;;;;;;5.17;51.20;101334.63;6065075;23;20570;-70
2022/03/11 07:27:29;;;;;;;5.38;5.07;;;;;;;5.26;51.18;101330.97;6050004;23;20089;-70
2022/03/11 07:29:56;;;;;;;3.60;3.50;;;;;;;5.29;50.02;101315.31;6054715;23;20397;-71
2022/03/11 07:32:24;;;;;;;4.13;3.92;;;;;;;5.43;50.34;101337.59;6051326;23;20014;-69
2022/03/11 07:34:50;;;;;;;3.50;3.40;;;;;;;5.10;49.46;101265.38;6048027;23;20484;-71
2022/03/11 07:37:17;;;;;;;3.55;3.45;;;;;;;5.60;49.19;101333.75;6057218;23;20032;-69
2022/03/11 07:39:43;;;;;;;3.25;3.15;;;;;;;5.47;48.20;101301.06;6061403;23;20030;-70
2022/03/11 07:42:09;;;;;;;4.28;4.07;;;;;;;5.71;48.29;101330.94;6085803;23;20030;-69
2022/03/11 07:44:36;;;;;;;4.80;4.60;;;;;;;5.43;48.25;101275.09;6075693;23;20010;-69
2022/03/11 07:47:03;;;;;;;3.47;3.28;;;;;;;5.84;48.11;101317.63;6084646;23;20081;-69
2022/03/11 07:49:29;;;;;;;5.65;5.35;;;;;;;5.96;47.09;101320.81;6082511;23;20086;-69
2022/03/11 07:51:56;;;;;;;3.45;3.35;;;;;;;5.65;47.41;101272.88;6076481;23;20018;-70
2022/03/11 07:54:23;;;;;;;4.63;4.43;;;;;;;5.68;46.79;101278.03;6055241;23;20393;-70
2022/03/11 07:56:49;;;;;;;4.53;4.22;;;;;;;5.98;46.73;101308.63;6102451;23;20021;-69
2022/03/11 07:59:16;;;;;;;4.55;4.35;;;;;;;5.85;46.41;101272.44;6079485;23;20023;-69
2022/03/11 08:01:42;;;;;;;3.45;3.35;;;;;;;6.05;46.36;101304.13;6083759;23;20009;-69
2022/03/11 08:04:13;;;;;;;3.70;3.60;;;;;;;6.01;46.39;101284.22;6097620;23;20438;-70
2022/03/11 08:06:40;;;;;;;4.13;3.88;;;;;;;5.97;46.10;101278.25;6077627;23;20080;-69
2022/03/11 08:09:07;;;;;;;3.75;3.55;;;;;;;5.92;46.62;101269.66;6079874;23;20053;-70
2022/03/11 08:11:33;;;;;;;5.85;5.45;;;;;;;6.24;45.43;101288.91;6078598;23;20296;-69
2022/03/11 08:14:00;;;;;;;4.45;4.20;;;;;;;6.32;45.57;101300.00;6070054;23;20116;-69
2022/03/11 08:16:26;;;;;;;5.55;5.25;;;;;;;6.42;45.05;101311.06;6078679;23;20444;-70
2022/03/11 08:18:53;;;;;;;3.75;3.55;;;;;;;5.95;44.93;101238.38;6077296;23;20266;-69
2022/03/11 08:21:20;;;;;;;3.78;3.58;;;;;;;6.21;45.31;101262.91;6083126;23;20037;-70
2022/03/11 08:23:46;;;;;;;3.70;3.55;;;;;;;6.38;45.79;101299.84;6081652;23;20023;-69
2022/03/11 08:26:12;;;;;;;3.53;3.42;;;;;;;6.45;44.85;101289.25;6088018;23;20024;-71
2022/03/11 08:28:44;;;;;;;3.42;3.33;;;;;;;6.21;45.21;101246.41;6077491;23;20038;-70
2022/03/11 08:31:31;;;;;;;4.95;4.75;;;;;;;6.12;45.27;101226.66;6076404;23;20041;-70
2022/03/11 08:33:57;;;;;;;3.35;3.25;;;;;;;5.45;45.38;101094.56;6088747;23;20159;-70
2022/03/11 08:36:24;;;;;;;3.95;3.80;;;;;;;6.45;44.48;101253.59;6081517;23;20014;-71
2022/03/11 08:38:53;;;;;;;3.50;3.40;;;;;;;6.46;43.95;101244.91;6084773;23;20089;-69
2022/03/11 08:41:22;;;;;;;3.63;3.47;;;;;;;6.75;44.50;101271.94;6086499;23;20061;-71
2022/03/11 08:43:49;;;;;;;3.20;3.10;;;;;;;6.67;43.72;101233.03;6058170;23;20015;-69
2022/03/11 08:46:15;;;;;;;5.22;3.90;;;;;;;6.79;44.05;101258.78;6087890;23;20041;-69
2022/03/11 08:48:43;;;;;;;4.20;4.00;;;;;;;6.81;43.22;101255.28;6056390;23;20064;-69
2022/03/11 08:51:10;;;;;;;4.55;4.32;;;;;;;6.69;44.62;101241.66;6082905;23;20022;-69
2022/03/11 08:53:37;;;;;;;5.28;5.07;;;;;;;6.81;43.88;101269.16;6060491;23;20050;-68
2022/03/11 08:56:04;;;;;;;3.40;3.30;;;;;;;6.83;43.32;101245.66;6082345;23;20053;-69
2022/03/11 08:58:31;;;;;;;5.97;5.68;;;;;;;6.95;43.23;101240.94;6079818;23;20234;-68
2022/03/11 09:00:58;;;;;;;4.13;3.92;;;;;;;6.87;43.29;101209.00;6086219;23;20029;-69
2022/03/11 09:03:25;;;;;;;4.25;4.07;;;;;;;7.11;43.73;101224.84;6080587;23;20054;-69
2022/03/11 09:05:52;;;;;;;3.30;3.20;;;;;;;7.06;43.32;101219.75;6086061;23;20024;-69
2022/03/11 09:08:18;;;;;;;4.03;3.83;;;;;;;7.30;42.63;101252.13;6083698;23;20124;-67
2022/03/11 09:10:44;;;;;;;8.15;3.50;;;;;;;7.36;42.80;101241.50;6076066;23;20071;-68
2022/03/11 09:13:11;;;;;;;3.47;3.38;;;;;;;7.09;42.49;101177.91;6086864;23;20592;-69
2022/03/11 09:15:37;;;;;;;5.53;5.28;;;;;;;7.47;42.69;101251.59;6077610;23;20029;-68
2022/03/11 09:18:10;;;;;;;4.20;3.92;;;;;;;7.39;42.80;101251.81;6086646;23;20076;-69
2022/03/11 09:20:37;;;;;;;6.18;5.63;;;;;;;7.37;41.98;101219.69;6100353;23;20022;-69
2022/03/11 09:23:06;;;;;;;3.70;3.60;;;;;;;7.61;42.12;101239.88;6056001;23;20030;-68
2022/03/11 09:25:32;;;;;;;4.95;4.75;;;;;;;7.48;41.60;101198.47;6076712;23;20017;-69
2022/03/11 09:28:05;;;;;;;4.53;4.20;;;;;;;7.72;41.91;101212.53;6047481;23;20034;-69
2022/03/11 09:30:31;;;;;;;5.68;5.43;;;;;;;8.00;40.78;101253.44;6083699;23;20032;-70
2022/03/11 09:32:58;;;;;;;4.22;4.03;;;;;;;7.86;40.80;101229.50;6072179;23;20026;-70
2022/03/11 09:35:24;;;;;;;5.30;5.00;;;;;;;7.94;40.52;101222.28;6067995;23;20046;-70
2022/03/11 09:37:51;;;;;;;3.72;3.63;;;;;;;8.09;39.73;101234.84;6085214;23;20519;-69
2022/03/11 09:40:17;;;;;;;4.13;3.92;;;;;;;7.89;40.63;101192.81;6075060;23;20028;-69
2022/03/11 09:42:45;;;;;;;4.25;3.95;;;;;;;8.11;39.79;101209.50;6056948;23;20037;-70
2022/03/11 09:45:12;;;;;;;4.40;4.20;;;;;;;8.30;40.44;101209.75;6084989;23;20053;-70
2022/03/11 09:47:40;;;;;;;5.25;5.05;;;;;;;8.45;39.67;101220.59;6093512;23;20057;-70
2022/03/11 09:50:07;;;;;;;4.10;3.90;;;;;;;8.34;39.43;101172.13;6086002;23;20017;-70
2022/03/11 09:52:34;;;;;;;4.97;4.78;;;;;;;8.54;39.30;101231.59;6079550;23;20509;-70
2022/03/11 09:55:06;;;;;;;4.13;3.92;;;;;;;8.43;39.49;101230.25;6081344;23;20316;-69
2022/03/11 09:57:32;;;;;;;6.20;5.88;;;;;;;8.34;39.35;101208.72;6105599;23;20054;-69
2022/03/11 09:59:59;;;;;;;3.63;3.53;;;;;;;8.63;39.18;101219.94;6083345;23;20462;-70
2022/03/11 10:02:26;;;;;;;5.25;5.05;;;;;;;8.63;38.80;101201.63;6082847;23;20092;-68
2022/03/11 10:04:57;;;;;;;3.88;3.67;;;;;;;8.81;38.34;101212.34;6084057;23;20162;-69
2022/03/11 10:07:44;;;;;;;4.00;3.80;;;;;;;8.86;38.25;101213.00;6045788;23;20487;-70
2022/03/11 10:10:14;;;;;;;4.00;3.80;;;;;;;8.54;38.71;101167.97;6085601;23;20026;-69
2022/03/11 10:13:01;;;;;;;4.00;3.80;;;;;;;9.10;38.56;101206.00;6085961;23;20028;-71
2022/03/11 10:15:29;;;;;;;5.75;5.45;;;;;;;9.29;38.07;101219.28;6100705;23;20021;-70
2022/03/11 10:17:57;;;;;;;3.70;3.60;;;;;;;9.35;37.94;101219.03;6059308;23;20435;-70
2022/03/11 10:20:25;;;;;;;5.13;4.93;;;;;;;9.37;37.76;101223.28;6078583;23;20097;-70
2022/03/11 10:22:52;;;;;;;4.53;4.32;;;;;;;9.33;38.14;101221.72;6063617;23;20083;-69
2022/03/11 10:25:25;;;;;;;4.97;4.55;;;;;;;9.41;37.52;101218.78;6074429;23;20006;-72
2022/03/11 10:27:59;;;;;;;4.05;3.85;;;;;;;9.47;37.73;101218.56;6080211;23;20804;-70
2022/03/11 10:30:26;;;;;;;5.32;5.13;;;;;;;9.52;37.14;101216.63;6073017;23;20089;-70
2022/03/11 10:32:54;;;;;;;4.25;3.90;;;;;;;9.30;37.05;101160.72;6087547;23;20505;-69
2022/03/11 10:35:30;;;;;;;3.83;3.65;;;;;;;9.47;36.63;101174.00;6078831;23;20041;-70
2022/03/11 10:38:00;;;;;;;3.90;3.70;;;;;;;9.64;35.96;101207.41;6080342;23;20026;-70
2022/03/11 10:40:34;;;;;;;4.97;4.78;;;;;;;9.57;36.59;101200.72;6073542;23;20307;-69
2022/03/11 10:43:13;;;;;;;4.18;3.97;;;;;;;9.08;37.43;101129.28;6084292;23;20100;-69
2022/03/11 10:45:55;;;;;;;4.00;3.80;;;;;;;9.66;36.70;101176.75;6078155;23;20014;-71
2022/03/11 10:48:41;;;;;;;4.53;4.28;;;;;;;9.83;36.01;101172.59;6083961;23;20104;-71
2022/03/11 10:51:28;;;;;;;3.90;3.70;;;;;;;9.81;35.58;101177.88;6085865;23;20082;-69
2022/03/11 10:53:56;;;;;;;4.82;4.53;;;;;;;9.75;36.33;101176.38;6079417;23;20018;-69
2022/03/11 10:56:43;;;;;;;4.57;4.38;;;;;;;9.96;35.97;101179.88;6082569;23;20024;-69
2022/03/11 10:59:24;;;;;;;4.03;3.83;;;;;;;10.08;36.92;101183.75;6091650;23;20081;-71
2022/03/11 11:01:52;;;;;;;4.03;3.83;;;;;;;10.45;35.98;101176.09;6081361;23;20841;-69
2022/03/11 11:04:20;;;;;;;4.60;4.32;;;;;;;10.38;35.59;101162.38;6091873;23;20032;-70
2022/03/11 11:06:47;;;;;;;4.05;3.85;;;;;;;10.01;35.56;101108.88;6082763;23;20010;-72
2022/03/11 11:09:17;;;;;;;3.80;3.70;;;;;;;10.53;34.93;101166.13;6084707;23;20030;-70
2022/03/11 11:11:44;;;;;;;4.88;4.57;;;;;;;10.64;35.22;101174.34;6084533;23;20121;-70
2022/03/11 11:14:12;;;;;;;5.43;4.80;;;;;;;10.54;35.17;101113.56;6087080;23;20032;-70
2022/03/11 11:16:41;;;;;;;5.43;5.13;;;;;;;10.63;34.83;101122.78;6080982;23;20057;-69
2022/03/11 11:19:09;;;;;;;5.05;4.75;;;;;;;10.91;35.24;101160.91;6086913;23;20073;-69
2022/03/11 11:21:39;;;;;;;5.45;5.15;;;;;;;10.63;35.09;101133.28;6078417;23;20069;-72
2022/03/11 11:24:11;;;;;;;3.80;3.70;;;;;;;10.77;35.30;101156.28;6098272;23;20084;-69
2022/03/11 11:26:40;;;;;;;5.43;5.13;;;;;;;10.82;35.42;101145.56;6088102;23;20021;-70
2022/03/11 11:29:08;;;;;;;4.68;4.35;;;;;;;11.04;35.12;101148.03;6098296;23;20459;-69
2022/03/11 11:31:35;;;;;;;5.55;5.35;;;;;;;11.13;34.35;101148.47;6091615;23;20006;-70
2022/03/11 11:34:02;;;;;;;10.10;4.82;;;;;;;11.18;34.75;101143.88;6089263;23;20124;-71
2022/03/11 11:36:39;;;;;;;5.78;5.53;;;;;;;11.24;34.32;101152.34;6088124;23;20375;-71